Terminal Aerodrome Forecast
Issued by NWS

Home | Current Version | Previous Version | Graphics & Text | Print | Product List | Glossary On
Versions: 1 2 3 4 5 6 7 8 9 10 11 12 13 14 15 16 17 18
000
FTUS43 KLSX 280520
TAFSUS
TAF
KSUS 280520Z 2806/2906 VRB04KT P6SM SKC
     FM281400 33007KT P6SM SCT040 SCT250
     FM281800 34012G18KT P6SM BKN050
     FM290100 35006KT P6SM BKN050=

USA.gov is the U.S. government's official web portal to all federal, state and local government web resources and services.